createdAt,value
2019-05-01T00:02:39.943Z,16.70
2019-05-01T00:05:19.161Z,16.70
2019-05-01T00:07:49.133Z,16.90
2019-05-01T00:10:20.997Z,17.00
2019-05-01T00:12:50.999Z,17.10
2019-05-01T00:15:23.677Z,16.50
2019-05-01T00:17:53.407Z,16.70
2019-05-01T00:20:23.089Z,16.80
2019-05-01T00:22:53.750Z,16.60
2019-05-01T00:25:24.179Z,16.80
2019-05-01T00:27:54.252Z,16.90
2019-05-01T00:30:30.121Z,17.00
2019-05-01T00:32:56.119Z,16.90
2019-05-01T00:35:25.971Z,16.60
2019-05-01T00:37:55.939Z,16.70
2019-05-01T00:40:25.889Z,16.80
2019-05-01T00:42:55.940Z,16.90
2019-05-01T00:45:25.926Z,17.00
2019-05-01T00:47:55.873Z,16.90
2019-05-01T00:50:25.644Z,16.40
2019-05-01T00:52:55.499Z,16.50
2019-05-01T00:55:59.586Z,16.70
2019-05-01T00:59:04.595Z,16.80
2019-05-01T01:01:53.140Z,16.80
2019-05-01T01:04:22.866Z,16.30
2019-05-01T01:06:52.827Z,16.30
2019-05-01T01:09:22.903Z,15.90
2019-05-01T01:11:52.885Z,15.90
2019-05-01T01:14:22.736Z,14.60
2019-05-01T01:16:52.468Z,13.90
2019-05-01T01:19:22.259Z,15.20
2019-05-01T01:21:52.300Z,15.80
2019-05-01T01:24:22.100Z,16.20
2019-05-01T01:26:52.260Z,16.40
2019-05-01T01:29:22.036Z,16.30
2019-05-01T01:31:51.829Z,16.40
2019-05-01T01:34:22.119Z,16.50
2019-05-01T01:36:51.784Z,16.50
2019-05-01T01:39:21.720Z,16.50
2019-05-01T01:41:51.757Z,16.50
2019-05-01T01:44:47.390Z,16.60
2019-05-01T01:47:17.739Z,16.60
2019-05-01T01:49:48.314Z,16.60
2019-05-01T01:52:18.063Z,16.50
2019-05-01T01:54:48.123Z,16.50
2019-05-01T01:57:17.887Z,16.30
2019-05-01T01:59:48.053Z,15.90
2019-05-01T02:02:28.212Z,16.00
2019-05-01T02:05:16.068Z,15.70
2019-05-01T02:07:45.891Z,15.80
2019-05-01T02:10:16.100Z,15.60
2019-05-01T02:12:45.880Z,15.30
2019-05-01T02:15:16.017Z,15.10
2019-05-01T02:17:46.287Z,15.70
2019-05-01T02:20:16.551Z,15.60
2019-05-01T02:22:46.228Z,15.90
2019-05-01T02:25:16.465Z,15.70
2019-05-01T02:27:52.091Z,15.50
2019-05-01T02:30:23.315Z,16.00
2019-05-01T02:32:55.841Z,16.10
2019-05-01T02:35:30.226Z,16.20
2019-05-01T02:37:58.938Z,15.80
2019-05-01T02:40:51.533Z,16.00
2019-05-01T02:43:23.500Z,16.10
2019-05-01T02:45:59.463Z,16.20
2019-05-01T02:48:33.647Z,16.20
2019-05-01T02:51:05.916Z,16.20
2019-05-01T02:53:39.105Z,16.20
2019-05-01T02:56:35.309Z,16.20
2019-05-01T02:59:08.399Z,16.10
2019-05-01T03:01:47.320Z,16.10
2019-05-01T03:04:13.878Z,16.10
2019-05-01T03:06:44.359Z,16.10
2019-05-01T03:09:14.319Z,16.10
2019-05-01T03:11:46.919Z,16.10
2019-05-01T03:14:20.223Z,15.80
2019-05-01T03:16:52.565Z,15.80
2019-05-01T03:19:43.349Z,15.50
2019-05-01T03:22:42.039Z,15.30
2019-05-01T03:25:12.508Z,15.60
2019-05-01T03:27:43.676Z,15.70
2019-05-01T03:30:13.841Z,15.80
2019-05-01T03:32:44.317Z,15.90
2019-05-01T03:35:14.395Z,15.80
2019-05-01T03:37:44.367Z,15.80
2019-05-01T03:40:14.565Z,15.90
2019-05-01T03:42:44.223Z,16.00
2019-05-01T03:45:14.203Z,16.10
2019-05-01T03:47:43.843Z,16.10
2019-05-01T03:50:14.075Z,15.70
2019-05-01T03:52:44.264Z,15.70
2019-05-01T03:55:14.421Z,13.70
2019-05-01T03:57:45.218Z,14.30
2019-05-01T04:00:19.313Z,12.80
2019-05-01T04:03:08.458Z,13.50
2019-05-01T04:05:39.350Z,14.00
2019-05-01T04:08:09.979Z,13.70
2019-05-01T04:10:39.646Z,11.90
2019-05-01T04:13:09.288Z,12.20
2019-05-01T04:15:39.696Z,12.30
2019-05-01T04:20:39.396Z,10.80
2019-05-01T04:23:09.398Z,10.00
2019-05-01T04:28:26.465Z,9.70
2019-05-01T04:31:06.324Z,9.70
2019-05-01T04:33:37.032Z,10.10
2019-05-01T04:41:09.346Z,9.70
2019-05-01T04:43:39.541Z,11.10
2019-05-01T04:46:09.178Z,11.20
2019-05-01T04:48:38.857Z,11.30
2019-05-01T04:51:09.122Z,11.40
2019-05-01T04:56:07.931Z,10.60
2019-05-01T04:58:37.717Z,10.70
2019-05-01T05:01:08.067Z,10.30
2019-05-01T05:03:37.860Z,9.30
2019-05-01T05:06:08.436Z,9.40
2019-05-01T05:08:38.924Z,9.30
2019-05-01T05:11:13.708Z,9.10
2019-05-01T05:14:02.821Z,10.20
2019-05-01T05:16:54.763Z,10.70
2019-05-01T05:19:24.444Z,11.80
2019-05-01T05:21:54.584Z,10.00
2019-05-01T05:24:24.573Z,9.90
2019-05-01T05:26:54.571Z,10.90
2019-05-01T05:29:24.755Z,11.90
2019-05-01T05:31:54.599Z,11.60
2019-05-01T05:34:26.764Z,11.00
2019-05-01T05:36:59.675Z,11.40
2019-05-01T05:39:37.151Z,10.40
2019-05-01T05:42:07.665Z,10.10
2019-05-01T05:44:37.635Z,9.90
2019-05-01T05:47:07.276Z,11.20
2019-05-01T05:49:37.068Z,11.50
2019-05-01T05:52:22.348Z,10.60
2019-05-01T05:55:13.195Z,9.70
2019-05-01T05:58:01.602Z,10.30
2019-05-01T06:00:51.320Z,9.80
2019-05-01T06:03:41.007Z,10.10
2019-05-01T06:06:44.167Z,9.70
2019-05-01T06:09:16.177Z,8.90
2019-05-01T06:12:23.460Z,9.10
2019-05-01T06:15:09.917Z,9.40
2019-05-01T06:18:04.232Z,10.40
2019-05-01T06:20:49.542Z,11.90
2019-05-01T06:23:34.264Z,12.60
2019-05-01T06:26:22.745Z,12.40
2019-05-01T06:28:55.878Z,10.70
2019-05-01T06:31:25.188Z,10.10
2019-05-01T06:33:56.027Z,10.10
2019-05-01T06:36:26.435Z,10.70
2019-05-01T06:38:57.301Z,10.50
2019-05-01T06:41:33.720Z,10.70
2019-05-01T06:44:33.532Z,9.80
2019-05-01T06:47:11.160Z,10.00
2019-05-01T06:50:01.173Z,10.60
2019-05-01T06:52:33.483Z,10.80
2019-05-01T06:55:03.666Z,10.00
2019-05-01T06:57:38.545Z,10.60
2019-05-01T07:00:09.469Z,11.30
2019-05-01T07:02:39.783Z,11.20
2019-05-01T07:05:15.081Z,12.20
2019-05-01T07:07:47.920Z,12.50
2019-05-01T07:10:15.721Z,11.70
2019-05-01T07:12:45.692Z,11.70
2019-05-01T07:15:15.847Z,11.30
2019-05-01T07:17:47.846Z,11.50
2019-05-01T07:20:42.174Z,12.30
2019-05-01T07:23:12.731Z,12.50
2019-05-01T07:25:43.960Z,13.10
2019-05-01T07:28:13.853Z,11.60
2019-05-01T07:30:59.699Z,11.20
2019-05-01T07:33:30.268Z,10.50
2019-05-01T07:36:00.539Z,11.40
2019-05-01T07:38:33.043Z,10.90
2019-05-01T07:41:03.467Z,11.90
2019-05-01T07:43:54.977Z,12.10
2019-05-01T07:46:54.221Z,13.30
2019-05-01T07:49:39.905Z,14.10
2019-05-01T07:52:12.490Z,13.40
2019-05-01T07:54:42.449Z,14.10
2019-05-01T07:57:13.875Z,14.40
2019-05-01T07:59:43.957Z,14.80
2019-05-01T08:02:14.321Z,12.60
2019-05-01T08:04:44.288Z,12.20
2019-05-01T08:07:13.951Z,10.90
2019-05-01T08:09:45.841Z,11.10
2019-05-01T08:12:19.004Z,9.80
2019-05-01T08:14:47.743Z,9.60
2019-05-01T08:17:20.335Z,10.10
2019-05-01T08:20:02.099Z,11.60
2019-05-01T08:22:37.073Z,11.50
2019-05-01T08:25:06.960Z,11.70
2019-05-01T08:27:46.075Z,10.00
2019-05-01T08:30:33.867Z,10.70
2019-05-01T08:33:21.769Z,12.50
2019-05-01T08:35:51.996Z,11.50
2019-05-01T08:38:21.828Z,11.00
2019-05-01T08:40:55.605Z,11.90
2019-05-01T08:43:24.168Z,11.60
2019-05-01T08:46:18.947Z,10.60
2019-05-01T08:48:56.696Z,11.00
2019-05-01T08:53:06.679Z,12.20
2019-05-01T08:55:39.773Z,11.80
2019-05-01T08:58:08.837Z,10.40
2019-05-01T09:00:41.250Z,10.60
2019-05-01T09:03:13.660Z,11.30
2019-05-01T09:05:44.754Z,11.70
2019-05-01T09:08:14.639Z,11.10
2019-05-01T09:10:44.295Z,12.10
2019-05-01T09:13:14.540Z,13.60
2019-05-01T09:15:48.225Z,13.80
2019-05-01T09:18:18.819Z,14.10
2019-05-01T09:20:49.799Z,13.50
2019-05-01T09:23:19.741Z,12.40
2019-05-01T09:26:16.232Z,13.40
2019-05-01T09:28:51.775Z,12.90
2019-05-01T09:31:23.753Z,11.30
2019-05-01T09:33:53.682Z,12.30
2019-05-01T09:36:23.819Z,13.70
2019-05-01T09:38:53.800Z,13.20
2019-05-01T09:41:23.776Z,12.70
2019-05-01T09:43:53.932Z,11.60
2019-05-01T09:46:23.925Z,12.30
2019-05-01T09:48:53.672Z,12.20
2019-05-01T09:51:49.328Z,13.20
2019-05-01T09:54:30.421Z,12.80
2019-05-01T09:57:00.288Z,12.20
2019-05-01T09:59:30.532Z,12.80
2019-05-01T10:02:03.022Z,14.20
2019-05-01T10:04:32.679Z,13.60
2019-05-01T10:07:02.739Z,13.50
2019-05-01T10:09:34.997Z,13.00
2019-05-01T10:12:05.132Z,11.50
2019-05-01T10:14:37.381Z,11.30
2019-05-01T10:17:07.191Z,11.80
2019-05-01T10:19:36.994Z,11.90
2019-05-01T10:22:06.679Z,11.60
2019-05-01T10:24:37.621Z,11.70
2019-05-01T10:27:10.338Z,11.70
2019-05-01T10:30:11.355Z,12.80
2019-05-01T10:32:57.773Z,12.70
2019-05-01T10:35:43.261Z,14.70
2019-05-01T10:38:14.292Z,15.10
2019-05-01T10:40:44.563Z,15.40
2019-05-01T10:43:14.737Z,15.40
2019-05-01T10:45:45.198Z,15.90
2019-05-01T10:48:15.178Z,15.90
2019-05-01T10:50:45.022Z,16.10
2019-05-01T10:53:14.932Z,15.90
2019-05-01T10:55:44.644Z,15.70
2019-05-01T10:58:18.262Z,15.70
2019-05-01T11:00:48.588Z,15.00
2019-05-01T11:03:18.539Z,15.20
2019-05-01T11:05:55.596Z,15.60
2019-05-01T11:08:19.922Z,15.40
2019-05-01T11:10:49.720Z,15.40
2019-05-01T11:13:20.348Z,15.40
2019-05-01T11:15:50.485Z,15.30
2019-05-01T11:18:20.213Z,15.60
2019-05-01T11:20:50.304Z,15.60
2019-05-01T11:23:19.991Z,15.80
2019-05-01T11:25:49.928Z,15.70
2019-05-01T11:28:19.628Z,14.90
2019-05-01T11:30:50.320Z,14.70
2019-05-01T11:33:28.759Z,15.00
2019-05-01T11:36:25.100Z,14.60
2019-05-01T11:39:13.849Z,13.80
2019-05-01T11:42:02.716Z,14.20
2019-05-01T11:44:33.347Z,14.90
2019-05-01T11:47:03.316Z,14.90
2019-05-01T11:49:33.091Z,14.60
2019-05-01T11:52:03.425Z,15.00
2019-05-01T11:54:34.083Z,15.50
2019-05-01T11:57:04.376Z,15.30
2019-05-01T11:59:34.623Z,15.40
2019-05-01T12:02:04.704Z,15.80
2019-05-01T12:04:34.548Z,15.80
2019-05-01T12:07:04.736Z,15.90
2019-05-01T12:09:35.108Z,16.10
2019-05-01T12:12:10.828Z,15.90
2019-05-01T12:14:40.975Z,15.50
2019-05-01T12:17:29.164Z,14.90
2019-05-01T12:19:59.292Z,15.10
2019-05-01T12:22:29.776Z,14.70
2019-05-01T12:24:59.764Z,15.40
2019-05-01T12:27:29.444Z,14.80
2019-05-01T12:29:59.679Z,15.00
2019-05-01T12:32:29.784Z,15.50
2019-05-01T12:35:01.015Z,15.50
2019-05-01T12:37:38.649Z,15.30
2019-05-01T12:40:10.012Z,15.30
2019-05-01T12:42:40.416Z,15.30
2019-05-01T12:45:10.821Z,15.30
2019-05-01T12:47:52.604Z,15.30
2019-05-01T12:50:22.877Z,15.10
2019-05-01T12:53:10.204Z,15.20
2019-05-01T12:55:59.183Z,15.50
2019-05-01T12:58:28.819Z,15.00
2019-05-01T13:00:58.608Z,15.30
2019-05-01T13:03:28.240Z,15.60
2019-05-01T13:05:57.956Z,15.20
2019-05-01T13:08:27.828Z,15.30
2019-05-01T13:10:57.737Z,15.10
2019-05-01T13:13:27.415Z,15.10
2019-05-01T13:15:57.121Z,14.90
2019-05-01T13:18:26.775Z,14.90
2019-05-01T13:20:56.456Z,15.30
2019-05-01T13:23:26.535Z,15.80
2019-05-01T13:25:59.931Z,15.70
2019-05-01T13:28:48.695Z,15.80
2019-05-01T13:31:37.744Z,16.20
2019-05-01T13:34:07.967Z,15.80
2019-05-01T13:36:38.020Z,16.00
2019-05-01T13:39:10.956Z,16.20
2019-05-01T13:41:40.932Z,16.00
2019-05-01T13:44:11.096Z,16.10
2019-05-01T13:46:41.064Z,15.60
2019-05-01T13:49:10.700Z,15.90
2019-05-01T13:51:40.416Z,15.80
2019-05-01T13:54:10.339Z,15.70
2019-05-01T13:56:40.021Z,16.00
2019-05-01T13:59:12.056Z,15.60
2019-05-01T14:01:41.780Z,15.80
2019-05-01T14:04:13.583Z,15.90
2019-05-01T14:06:43.469Z,15.90
2019-05-01T14:09:16.583Z,14.70
2019-05-01T14:11:46.961Z,14.40
2019-05-01T14:14:16.975Z,14.60
2019-05-01T14:16:46.638Z,15.10
2019-05-01T14:19:16.459Z,15.00
2019-05-01T14:22:07.962Z,14.30
2019-05-01T14:24:40.502Z,14.40
2019-05-01T14:27:10.616Z,15.40
2019-05-01T14:29:40.503Z,15.30
2019-05-01T14:32:10.335Z,15.70
2019-05-01T14:34:40.208Z,15.90
2019-05-01T14:37:10.136Z,15.50
2019-05-01T14:39:39.927Z,15.00
2019-05-01T14:42:09.896Z,15.30
2019-05-01T14:44:39.863Z,15.60
2019-05-01T14:47:09.825Z,15.90
2019-05-01T14:49:39.808Z,15.80
2019-05-01T14:52:10.244Z,15.70
2019-05-01T14:54:40.048Z,15.70
2019-05-01T14:57:09.735Z,15.90
2019-05-01T14:59:39.648Z,16.10
2019-05-01T15:02:09.524Z,16.20
2019-05-01T15:04:39.491Z,16.20
2019-05-01T15:07:11.208Z,16.40
2019-05-01T15:09:41.455Z,16.60
2019-05-01T15:12:11.528Z,16.40
2019-05-01T15:14:57.624Z,16.20
2019-05-01T15:17:42.169Z,16.40
2019-05-01T15:20:12.416Z,16.40
2019-05-01T15:22:42.718Z,16.50
2019-05-01T15:25:12.615Z,16.10
2019-05-01T15:27:43.367Z,16.30
2019-05-01T15:30:17.524Z,16.50
2019-05-01T15:32:47.700Z,16.60
2019-05-01T15:35:17.673Z,16.60
2019-05-01T15:37:56.499Z,16.60
2019-05-01T15:40:39.908Z,16.60
2019-05-01T15:43:27.951Z,16.60
2019-05-01T15:45:57.787Z,16.80
2019-05-01T15:48:28.041Z,16.80
2019-05-01T15:50:58.030Z,15.70
2019-05-01T15:53:27.863Z,15.80
2019-05-01T15:55:57.775Z,15.90
2019-05-01T15:58:27.808Z,16.10
2019-05-01T16:00:57.567Z,15.80
2019-05-01T16:03:27.941Z,16.40
2019-05-01T16:05:58.039Z,16.20
2019-05-01T16:08:27.978Z,16.50
2019-05-01T16:11:04.720Z,16.60
2019-05-01T16:13:34.569Z,16.70
2019-05-01T16:16:04.531Z,16.70
2019-05-01T16:18:34.897Z,16.60
2019-05-01T16:21:04.979Z,16.60
2019-05-01T16:23:34.951Z,16.40
2019-05-01T16:26:04.911Z,16.50
2019-05-01T16:28:34.788Z,16.10
2019-05-01T16:31:04.988Z,16.40
2019-05-01T16:33:34.974Z,16.70
2019-05-01T16:36:05.429Z,16.40
2019-05-01T16:38:52.795Z,16.30
2019-05-01T16:41:22.823Z,16.60
2019-05-01T16:43:52.739Z,16.50
2019-05-01T16:46:23.091Z,16.70
2019-05-01T16:48:52.888Z,16.70
2019-05-01T16:51:22.731Z,16.60
2019-05-01T16:53:52.700Z,16.70
2019-05-01T16:56:22.564Z,16.70
2019-05-01T16:58:52.550Z,16.60
2019-05-01T17:01:53.464Z,16.40
2019-05-01T17:04:38.679Z,16.50
2019-05-01T17:07:43.059Z,16.20
2019-05-01T17:10:23.864Z,16.30
2019-05-01T17:12:54.888Z,16.20
2019-05-01T17:15:36.045Z,16.30
2019-05-01T17:18:06.077Z,16.10
2019-05-01T17:20:36.143Z,16.20
2019-05-01T17:23:06.199Z,15.80
2019-05-01T17:25:36.356Z,15.60
2019-05-01T17:28:08.229Z,15.50
2019-05-01T17:30:42.438Z,15.80
2019-05-01T17:33:19.836Z,15.60
2019-05-01T17:35:44.024Z,16.00
2019-05-01T17:38:13.667Z,16.30
2019-05-01T17:40:47.318Z,16.40
2019-05-01T17:43:15.473Z,16.40
2019-05-01T17:45:45.612Z,16.50
2019-05-01T17:48:15.692Z,16.70
2019-05-01T17:50:45.960Z,16.60
2019-05-01T17:53:16.135Z,16.60
2019-05-01T17:55:46.107Z,15.80
2019-05-01T17:58:16.276Z,15.50
2019-05-01T18:01:08.307Z,15.20
2019-05-01T18:03:57.320Z,15.00
2019-05-01T18:06:41.869Z,15.80
2019-05-01T18:09:13.394Z,16.50
2019-05-01T18:11:41.780Z,16.30
2019-05-01T18:14:12.132Z,16.40
2019-05-01T18:16:42.332Z,16.80
2019-05-01T18:19:12.335Z,16.00
2019-05-01T18:21:46.778Z,16.00
2019-05-01T18:24:39.105Z,16.60
2019-05-01T18:27:35.265Z,16.90
2019-05-01T18:30:08.535Z,16.80
2019-05-01T18:32:47.551Z,17.10
2019-05-01T18:35:16.109Z,17.20
2019-05-01T18:38:11.739Z,17.20
2019-05-01T18:40:44.113Z,17.30
2019-05-01T18:43:14.147Z,17.30
2019-05-01T18:45:52.833Z,17.30
2019-05-01T18:48:23.165Z,17.30
2019-05-01T18:50:55.105Z,17.30
2019-05-01T18:53:25.074Z,17.20
2019-05-01T18:55:55.478Z,17.30
2019-05-01T18:58:25.544Z,17.10
2019-05-01T19:00:55.623Z,16.80
2019-05-01T19:03:25.783Z,16.90
2019-05-01T19:05:56.347Z,17.00
2019-05-01T19:08:26.468Z,17.00
2019-05-01T19:10:56.651Z,17.00
2019-05-01T19:13:27.252Z,17.10
2019-05-01T19:15:56.912Z,17.10
2019-05-01T19:18:28.488Z,17.10
2019-05-01T19:20:59.655Z,17.00
2019-05-01T19:23:33.180Z,17.00
2019-05-01T19:26:06.504Z,17.00
2019-05-01T19:28:34.667Z,17.00
2019-05-01T19:31:05.060Z,17.00
2019-05-01T19:33:35.041Z,16.90
2019-05-01T19:36:08.161Z,16.90
2019-05-01T19:38:36.985Z,16.90
2019-05-01T19:41:08.799Z,16.90
2019-05-01T19:43:40.473Z,16.90
2019-05-01T19:46:11.099Z,16.90
2019-05-01T19:48:45.322Z,16.90
2019-05-01T19:51:12.732Z,16.90
2019-05-01T19:53:46.567Z,16.80
2019-05-01T19:56:16.702Z,16.80
2019-05-01T19:58:46.187Z,16.80
2019-05-01T20:01:16.035Z,16.80
2019-05-01T20:03:45.811Z,16.80
2019-05-01T20:06:16.218Z,16.80
2019-05-01T20:08:47.833Z,16.70
2019-05-01T20:11:18.114Z,16.70
2019-05-01T20:13:48.576Z,16.70
2019-05-01T20:16:19.731Z,16.20
2019-05-01T20:18:49.826Z,16.40
2019-05-01T20:21:19.936Z,16.50
2019-05-01T20:23:49.720Z,16.20
2019-05-01T20:26:19.923Z,16.00
2019-05-01T20:28:49.743Z,15.90
2019-05-01T20:31:20.873Z,16.00
2019-05-01T20:33:51.583Z,16.20
2019-05-01T20:36:21.638Z,15.70
2019-05-01T20:38:51.318Z,15.60
2019-05-01T20:41:21.735Z,15.70
2019-05-01T20:43:51.779Z,15.90
2019-05-01T20:46:25.928Z,16.10
2019-05-01T20:48:55.945Z,15.70
2019-05-01T20:51:24.707Z,15.50
2019-05-01T20:53:54.536Z,15.50
2019-05-01T20:56:51.217Z,15.60
2019-05-01T20:59:21.399Z,15.30
2019-05-01T21:01:51.417Z,15.80
2019-05-01T21:04:40.325Z,15.80
2019-05-01T21:07:15.512Z,15.70
2019-05-01T21:09:48.043Z,16.00
2019-05-01T21:12:18.277Z,16.30
2019-05-01T21:14:49.751Z,16.00
2019-05-01T21:17:20.055Z,15.80
2019-05-01T21:19:50.516Z,15.80
2019-05-01T21:22:20.387Z,15.30
2019-05-01T21:24:50.249Z,15.70
2019-05-01T21:27:20.004Z,16.00
2019-05-01T21:29:49.819Z,16.10
2019-05-01T21:32:26.065Z,15.70
2019-05-01T21:34:53.235Z,15.60
2019-05-01T21:37:22.867Z,15.10
2019-05-01T21:39:53.766Z,15.10
2019-05-01T21:42:24.515Z,14.60
2019-05-01T21:44:54.463Z,15.30
2019-05-01T21:47:24.368Z,15.30
2019-05-01T21:49:54.003Z,15.40
2019-05-01T21:52:26.927Z,15.80
2019-05-01T21:54:57.052Z,16.00
2019-05-01T21:57:27.820Z,16.10
2019-05-01T21:59:58.142Z,16.20
2019-05-01T22:02:28.206Z,16.20
2019-05-01T22:04:57.844Z,16.20
2019-05-01T22:07:28.992Z,16.20
2019-05-01T22:09:58.740Z,16.20
2019-05-01T22:12:28.743Z,16.20
2019-05-01T22:15:01.630Z,16.10
2019-05-01T22:17:59.233Z,16.10
2019-05-01T22:20:35.721Z,16.10
2019-05-01T22:23:09.659Z,16.10
2019-05-01T22:25:46.019Z,16.00
2019-05-01T22:28:23.474Z,16.00
2019-05-01T22:31:12.043Z,16.00
2019-05-01T22:33:43.193Z,16.00
2019-05-01T22:36:13.079Z,16.00
2019-05-01T22:38:42.711Z,16.00
2019-05-01T22:41:13.115Z,15.90
2019-05-01T22:43:42.951Z,15.90
2019-05-01T22:46:23.468Z,15.90
2019-05-01T22:48:53.119Z,15.90
2019-05-01T22:51:24.024Z,15.90
2019-05-01T22:53:56.486Z,15.90
2019-05-01T22:56:26.492Z,15.90
2019-05-01T22:58:56.552Z,15.80
2019-05-01T23:01:27.269Z,15.80
2019-05-01T23:04:02.542Z,15.80
2019-05-01T23:06:32.417Z,15.80
2019-05-01T23:09:02.173Z,15.80
2019-05-01T23:11:33.796Z,15.70
2019-05-01T23:14:03.654Z,15.70
2019-05-01T23:16:38.321Z,15.70
2019-05-01T23:19:07.971Z,15.70
2019-05-01T23:21:37.665Z,15.60
2019-05-01T23:24:07.808Z,15.70
2019-05-01T23:26:37.535Z,15.70
2019-05-01T23:29:07.191Z,15.60
2019-05-01T23:31:36.835Z,15.60
2019-05-01T23:34:06.771Z,15.60
2019-05-01T23:36:36.412Z,15.60
2019-05-01T23:39:07.600Z,15.60
2019-05-01T23:41:45.571Z,15.60
2019-05-01T23:44:08.764Z,15.60
2019-05-01T23:46:38.632Z,15.50
2019-05-01T23:49:08.589Z,15.50
2019-05-01T23:51:38.557Z,15.50
2019-05-01T23:54:08.645Z,15.50
2019-05-01T23:56:38.511Z,15.50
2019-05-01T23:59:08.497Z,15.50
